createdAt,value
2019-06-01T00:00:22.134Z,7.60
2019-06-01T00:02:56.605Z,6.30
2019-06-01T00:05:24.137Z,5.50
2019-06-01T00:07:52.577Z,9.03
2019-06-01T00:10:21.179Z,5.57
2019-06-01T00:12:49.638Z,4.97
2019-06-01T00:15:18.680Z,6.07
2019-06-01T00:17:47.999Z,8.03
2019-06-01T00:20:16.578Z,7.37
2019-06-01T00:22:45.469Z,5.47
2019-06-01T00:25:13.946Z,4.60
2019-06-01T00:27:42.514Z,6.33
2019-06-01T00:30:25.939Z,5.73
2019-06-01T00:32:41.360Z,4.27
2019-06-01T00:35:10.149Z,6.27
2019-06-01T00:37:38.837Z,5.30
2019-06-01T00:40:07.822Z,5.00
2019-06-01T00:42:36.371Z,5.50
2019-06-01T00:45:05.177Z,5.70
2019-06-01T00:47:33.622Z,4.47
2019-06-01T00:50:02.163Z,4.23
2019-06-01T00:52:31.054Z,8.10
2019-06-01T00:54:59.721Z,4.93
2019-06-01T00:57:28.119Z,6.60
2019-06-01T00:59:56.434Z,6.80
2019-06-01T01:02:24.810Z,8.93
2019-06-01T01:05:01.410Z,3.87
2019-06-01T01:07:29.939Z,7.90
2019-06-01T01:09:58.677Z,5.73
2019-06-01T01:12:27.270Z,6.03
2019-06-01T01:14:56.044Z,6.07
2019-06-01T01:17:25.037Z,2.77
2019-06-01T01:19:54.003Z,4.10
2019-06-01T01:22:22.238Z,2.53
2019-06-01T01:24:50.682Z,5.13
2019-06-01T01:27:19.480Z,4.97
2019-06-01T01:29:48.976Z,4.53
2019-06-01T01:32:18.074Z,2.80
2019-06-01T01:34:47.407Z,3.33
2019-06-01T01:37:15.906Z,3.93
2019-06-01T01:39:45.782Z,3.67
2019-06-01T01:42:14.274Z,4.13
2019-06-01T01:44:42.781Z,6.13
2019-06-01T01:47:14.291Z,3.90
2019-06-01T01:49:41.897Z,5.77
2019-06-01T01:52:10.561Z,3.63
2019-06-01T01:54:39.628Z,3.33
2019-06-01T01:57:08.173Z,2.43
2019-06-01T01:59:36.942Z,3.77
2019-06-01T02:02:05.230Z,2.97
2019-06-01T02:04:34.066Z,6.00
2019-06-01T02:07:02.651Z,6.83
2019-06-01T02:09:31.585Z,2.90
2019-06-01T02:12:01.989Z,2.83
2019-06-01T02:14:30.608Z,6.73
2019-06-01T02:17:00.258Z,5.80
2019-06-01T02:19:29.253Z,5.83
2019-06-01T02:21:58.502Z,5.37
2019-06-01T02:24:27.077Z,3.63
2019-06-01T02:26:55.494Z,6.03
2019-06-01T02:29:23.948Z,5.07
2019-06-01T02:31:52.830Z,2.23
2019-06-01T02:34:21.984Z,2.40
2019-06-01T02:36:50.716Z,3.87
2019-06-01T02:39:19.349Z,3.60
2019-06-01T02:41:48.348Z,4.97
2019-06-01T02:44:17.170Z,4.27
2019-06-01T02:46:45.926Z,3.27
2019-06-01T02:49:14.349Z,3.77
2019-06-01T02:51:42.857Z,2.83
2019-06-01T02:54:11.033Z,3.40
2019-06-01T02:56:39.493Z,6.73
2019-06-01T02:59:08.965Z,3.97
2019-06-01T03:01:37.648Z,6.17
2019-06-01T03:04:08.161Z,5.57
2019-06-01T03:06:38.643Z,15.60
2019-06-01T03:09:08.952Z,11.87
2019-06-01T03:11:38.175Z,9.47
2019-06-01T03:14:08.796Z,4.30
2019-06-01T03:16:40.194Z,7.50
2019-06-01T03:19:09.016Z,4.10
2019-06-01T03:21:37.610Z,6.60
2019-06-01T03:24:13.321Z,8.80
2019-06-01T03:26:42.985Z,11.90
2019-06-01T03:29:21.031Z,20.43
2019-06-01T03:31:49.681Z,24.87
2019-06-01T03:34:18.295Z,23.47
2019-06-01T03:36:47.247Z,12.30
2019-06-01T03:39:16.193Z,7.97
2019-06-01T03:41:44.694Z,7.53
2019-06-01T03:44:13.156Z,5.20
2019-06-01T03:46:41.596Z,4.60
2019-06-01T03:49:10.210Z,5.97
2019-06-01T03:51:38.857Z,6.40
2019-06-01T03:54:08.560Z,3.40
2019-06-01T03:56:37.753Z,4.23
2019-06-01T03:59:07.273Z,9.03
2019-06-01T04:01:35.837Z,7.20
2019-06-01T04:04:05.049Z,4.67
2019-06-01T04:06:34.025Z,3.87
2019-06-01T04:09:03.568Z,4.40
2019-06-01T04:11:32.117Z,8.80
2019-06-01T04:14:01.540Z,6.07
2019-06-01T04:16:30.065Z,4.20
2019-06-01T04:18:58.638Z,7.40
2019-06-01T04:21:27.434Z,4.63
2019-06-01T04:23:56.008Z,3.20
2019-06-01T04:26:24.448Z,5.07
2019-06-01T04:28:53.000Z,6.03
2019-06-01T04:31:21.521Z,4.67
2019-06-01T04:33:49.813Z,7.07
2019-06-01T04:36:19.850Z,4.37
2019-06-01T04:38:48.842Z,5.07
2019-06-01T04:41:17.836Z,5.30
2019-06-01T04:43:46.421Z,6.50
2019-06-01T04:46:14.782Z,6.67
2019-06-01T04:48:43.387Z,8.97
2019-06-01T04:51:13.422Z,3.87
2019-06-01T04:53:42.529Z,5.07
2019-06-01T04:56:11.186Z,4.30
2019-06-01T04:58:39.781Z,7.67
2019-06-01T05:01:08.960Z,2.40
2019-06-01T05:03:37.583Z,7.03
2019-06-01T05:06:07.207Z,4.97
2019-06-01T05:08:35.801Z,9.50
2019-06-01T05:11:06.562Z,4.53
2019-06-01T05:13:35.201Z,3.47
2019-06-01T05:16:04.055Z,3.60
2019-06-01T05:18:32.640Z,3.63
2019-06-01T05:21:01.425Z,4.37
2019-06-01T05:23:30.353Z,2.47
2019-06-01T05:25:59.406Z,2.40
2019-06-01T05:28:28.011Z,2.87
2019-06-01T05:30:56.674Z,2.10
2019-06-01T05:33:36.951Z,2.23
2019-06-01T05:35:55.309Z,6.17
2019-06-01T05:38:23.901Z,3.53
2019-06-01T05:40:52.378Z,3.83
2019-06-01T05:43:21.406Z,2.17
2019-06-01T05:45:50.060Z,4.67
2019-06-01T05:48:24.718Z,3.23
2019-06-01T05:50:49.039Z,5.23
2019-06-01T05:53:19.750Z,3.87
2019-06-01T05:55:47.815Z,8.87
2019-06-01T05:58:17.246Z,3.80
2019-06-01T06:00:46.038Z,2.70
2019-06-01T06:03:16.164Z,3.23
2019-06-01T06:05:44.630Z,3.00
2019-06-01T06:08:14.322Z,2.83
2019-06-01T06:10:43.257Z,3.07
2019-06-01T06:13:11.748Z,1.70
2019-06-01T06:15:40.066Z,4.63
2019-06-01T06:18:08.470Z,2.73
2019-06-01T06:20:36.838Z,1.90
2019-06-01T06:23:05.335Z,3.80
2019-06-01T06:25:35.805Z,2.43
2019-06-01T06:28:04.181Z,2.87
2019-06-01T06:30:32.842Z,2.37
2019-06-01T06:33:01.208Z,3.57
2019-06-01T06:35:29.829Z,2.07
2019-06-01T06:37:58.275Z,1.67
2019-06-01T06:40:27.049Z,1.80
2019-06-01T06:42:56.560Z,1.63
2019-06-01T06:45:25.033Z,3.27
2019-06-01T06:47:53.766Z,1.47
2019-06-01T06:50:23.530Z,1.20
2019-06-01T06:52:52.340Z,2.00
2019-06-01T06:55:22.029Z,2.87
2019-06-01T06:57:50.549Z,4.03
2019-06-01T07:00:18.960Z,1.40
2019-06-01T07:02:47.989Z,1.77
2019-06-01T07:05:17.230Z,2.43
2019-06-01T07:07:46.286Z,2.17
2019-06-01T07:10:15.284Z,1.57
2019-06-01T07:12:44.032Z,2.10
2019-06-01T07:15:12.785Z,0.93
2019-06-01T07:17:42.384Z,1.57
2019-06-01T07:20:11.021Z,2.73
2019-06-01T07:22:43.108Z,2.03
2019-06-01T07:25:11.592Z,1.60
2019-06-01T07:27:40.752Z,2.57
2019-06-01T07:30:09.846Z,4.40
2019-06-01T07:32:39.310Z,1.40
2019-06-01T07:35:08.127Z,2.33
2019-06-01T07:37:36.965Z,1.50
2019-06-01T07:40:05.650Z,1.80
2019-06-01T07:42:34.231Z,3.87
2019-06-01T07:45:02.861Z,1.93
2019-06-01T07:47:31.411Z,2.90
2019-06-01T07:50:00.381Z,1.60
2019-06-01T07:52:29.098Z,2.07
2019-06-01T07:54:57.753Z,3.03
2019-06-01T07:57:25.977Z,2.70
2019-06-01T07:59:54.392Z,1.27
2019-06-01T08:02:25.701Z,2.33
2019-06-01T08:04:54.746Z,1.90
2019-06-01T08:07:24.588Z,5.03
2019-06-01T08:09:53.521Z,4.97
2019-06-01T08:12:21.834Z,3.37
2019-06-01T08:14:50.388Z,2.93
2019-06-01T08:17:19.327Z,2.70
2019-06-01T08:19:51.617Z,1.93
2019-06-01T08:22:18.230Z,1.37
2019-06-01T08:24:47.047Z,3.30
2019-06-01T08:27:15.746Z,3.50
2019-06-01T08:29:44.298Z,1.07
2019-06-01T08:32:12.970Z,1.83
2019-06-01T08:34:42.126Z,1.95
2019-06-01T08:37:10.566Z,1.00
2019-06-01T08:39:39.233Z,2.92
2019-06-01T08:42:07.923Z,0.93
2019-06-01T08:44:36.858Z,1.22
2019-06-01T08:47:05.701Z,4.17
2019-06-01T08:49:34.724Z,1.55
2019-06-01T08:52:03.283Z,1.83
2019-06-01T08:54:32.276Z,1.57
2019-06-01T08:57:00.702Z,2.27
2019-06-01T08:59:30.384Z,1.67
2019-06-01T09:01:58.964Z,1.43
2019-06-01T09:04:28.814Z,2.63
2019-06-01T09:06:59.017Z,2.30
2019-06-01T09:09:28.867Z,4.07
2019-06-01T09:11:57.378Z,1.40
2019-06-01T09:14:27.097Z,1.27
2019-06-01T09:16:55.663Z,2.12
2019-06-01T09:19:25.411Z,1.67
2019-06-01T09:21:53.917Z,2.33
2019-06-01T09:24:22.595Z,3.07
2019-06-01T09:26:51.133Z,1.83
2019-06-01T09:29:19.818Z,1.47
2019-06-01T09:31:48.807Z,2.90
2019-06-01T09:34:17.369Z,2.58
2019-06-01T09:36:46.181Z,1.40
2019-06-01T09:39:15.043Z,8.15
2019-06-01T09:41:43.558Z,1.72
2019-06-01T09:44:12.508Z,1.45
2019-06-01T09:46:42.077Z,3.67
2019-06-01T09:49:10.792Z,1.42
2019-06-01T09:51:39.487Z,2.10
2019-06-01T09:54:08.130Z,2.07
2019-06-01T09:56:39.838Z,4.83
2019-06-01T09:59:08.284Z,1.75
2019-06-01T10:01:37.032Z,3.90
2019-06-01T10:04:07.046Z,3.12
2019-06-01T10:06:36.863Z,1.93
2019-06-01T10:09:06.717Z,1.40
2019-06-01T10:11:36.038Z,2.17
2019-06-01T10:14:04.982Z,1.77
2019-06-01T10:16:34.405Z,2.42
2019-06-01T10:19:03.305Z,2.02
2019-06-01T10:21:32.050Z,2.60
2019-06-01T10:24:00.670Z,1.92
2019-06-01T10:26:29.038Z,2.90
2019-06-01T10:28:57.410Z,2.08
2019-06-01T10:31:25.645Z,2.35
2019-06-01T10:33:54.218Z,4.90
2019-06-01T10:36:23.717Z,2.40
2019-06-01T10:38:53.817Z,5.17
2019-06-01T10:41:22.766Z,1.92
2019-06-01T10:43:51.759Z,2.47
2019-06-01T10:46:20.476Z,2.58
2019-06-01T10:48:49.440Z,3.45
2019-06-01T10:51:18.433Z,6.60
2019-06-01T10:53:47.267Z,2.33
2019-06-01T10:56:15.671Z,3.60
2019-06-01T10:58:59.247Z,3.52
2019-06-01T11:01:14.974Z,7.63
2019-06-01T11:03:43.723Z,1.97
2019-06-01T11:06:12.327Z,2.08
2019-06-01T11:08:41.135Z,3.83
2019-06-01T11:11:09.816Z,5.80
2019-06-01T11:13:39.063Z,4.43
2019-06-01T11:16:07.953Z,1.57
2019-06-01T11:18:37.477Z,2.75
2019-06-01T11:21:06.400Z,1.87
2019-06-01T11:23:35.557Z,3.23
2019-06-01T11:26:04.336Z,1.77
2019-06-01T11:28:33.842Z,2.98
2019-06-01T11:31:02.631Z,1.80
2019-06-01T11:33:31.422Z,2.47
2019-06-01T11:35:59.703Z,1.65
2019-06-01T11:38:28.421Z,1.57
2019-06-01T11:40:57.020Z,2.33
2019-06-01T11:43:26.063Z,3.58
2019-06-01T11:45:54.649Z,3.10
2019-06-01T11:48:23.436Z,2.55
2019-06-01T11:50:52.373Z,3.37
2019-06-01T11:53:21.418Z,1.32
2019-06-01T11:55:50.411Z,2.37
2019-06-01T11:58:18.816Z,2.05
2019-06-01T12:00:47.321Z,2.05
2019-06-01T12:03:16.395Z,2.85
2019-06-01T12:05:45.984Z,2.15
2019-06-01T12:08:14.673Z,1.22
2019-06-01T12:10:43.215Z,1.15
2019-06-01T12:13:11.877Z,2.47
2019-06-01T12:15:40.821Z,2.12
2019-06-01T12:18:09.558Z,1.47
2019-06-01T12:20:38.643Z,1.42
2019-06-01T12:23:07.239Z,1.40
2019-06-01T12:25:35.878Z,1.47
2019-06-01T12:28:04.313Z,4.00
2019-06-01T12:30:32.889Z,1.55
2019-06-01T12:33:01.681Z,2.27
2019-06-01T12:35:30.682Z,1.30
2019-06-01T12:38:06.031Z,1.35
2019-06-01T12:40:30.179Z,1.00
2019-06-01T12:42:58.769Z,1.12
2019-06-01T12:45:27.813Z,1.20
2019-06-01T12:47:58.581Z,2.58
2019-06-01T12:50:27.382Z,2.05
2019-06-01T12:52:56.655Z,2.75
2019-06-01T12:55:25.406Z,2.90
2019-06-01T12:57:53.985Z,1.27
2019-06-01T13:00:23.357Z,3.35
2019-06-01T13:03:06.072Z,3.85
2019-06-01T13:05:22.809Z,3.62
2019-06-01T13:08:00.698Z,2.95
2019-06-01T13:10:21.999Z,5.95
2019-06-01T13:12:52.276Z,1.10
2019-06-01T13:15:20.901Z,1.20
2019-06-01T13:17:49.509Z,1.95
2019-06-01T13:20:17.946Z,3.72
2019-06-01T13:22:46.309Z,4.12
2019-06-01T13:25:14.697Z,1.98
2019-06-01T13:27:44.220Z,4.17
2019-06-01T13:30:12.624Z,8.30
2019-06-01T13:32:42.435Z,4.42
2019-06-01T13:35:11.077Z,4.70
2019-06-01T13:37:39.644Z,2.52
2019-06-01T13:40:08.827Z,2.65
2019-06-01T13:42:37.098Z,21.85
2019-06-01T13:45:05.938Z,5.65
2019-06-01T13:47:37.979Z,13.30
2019-06-01T13:50:08.212Z,3.80
2019-06-01T13:52:36.798Z,5.40
2019-06-01T13:55:06.785Z,2.97
2019-06-01T13:57:39.295Z,3.12
2019-06-01T14:00:06.374Z,4.25
2019-06-01T14:02:34.934Z,4.08
2019-06-01T14:05:03.997Z,4.60
2019-06-01T14:07:33.913Z,2.98
2019-06-01T14:10:03.431Z,4.85
2019-06-01T14:12:31.889Z,4.17
2019-06-01T14:15:00.366Z,7.17
2019-06-01T14:17:28.793Z,4.83
2019-06-01T14:19:57.162Z,7.42
2019-06-01T14:22:26.782Z,7.33
2019-06-01T14:25:11.898Z,7.67
2019-06-01T14:27:26.326Z,5.30
2019-06-01T14:29:56.398Z,6.55
2019-06-01T14:32:24.957Z,4.20
2019-06-01T14:34:54.821Z,2.20
2019-06-01T14:37:23.581Z,3.52
2019-06-01T14:39:52.911Z,3.70
2019-06-01T14:42:21.393Z,4.50
2019-06-01T14:44:51.320Z,4.67
2019-06-01T14:47:19.997Z,4.15
2019-06-01T14:49:49.455Z,4.75
2019-06-01T14:52:18.457Z,5.80
2019-06-01T14:54:47.647Z,4.53
2019-06-01T14:57:16.368Z,2.73
2019-06-01T14:59:44.969Z,5.80
2019-06-01T15:02:13.814Z,4.60
2019-06-01T15:04:42.501Z,3.33
2019-06-01T15:07:11.061Z,4.43
2019-06-01T15:09:39.421Z,3.67
2019-06-01T15:12:07.991Z,6.43
2019-06-01T15:14:36.960Z,4.83
2019-06-01T15:17:05.479Z,6.37
2019-06-01T15:19:34.263Z,4.37
2019-06-01T15:22:03.526Z,3.00
2019-06-01T15:24:32.296Z,2.33
2019-06-01T15:27:00.911Z,5.80
2019-06-01T15:29:29.239Z,4.30
2019-06-01T15:31:58.055Z,4.77
2019-06-01T15:34:27.038Z,6.33
2019-06-01T15:36:56.082Z,5.03
2019-06-01T15:39:25.671Z,5.33
2019-06-01T15:41:55.238Z,3.37
2019-06-01T15:44:28.598Z,6.13
2019-06-01T15:47:10.962Z,5.20
2019-06-01T15:49:58.053Z,4.03
2019-06-01T15:52:35.288Z,3.20
2019-06-01T15:55:05.735Z,4.73
2019-06-01T15:57:35.078Z,2.17
2019-06-01T16:00:05.961Z,5.83
2019-06-01T16:02:35.178Z,5.57
2019-06-01T16:05:07.753Z,4.40
2019-06-01T16:07:39.136Z,4.37
2019-06-01T16:10:12.360Z,5.87
2019-06-01T16:12:41.731Z,6.50
2019-06-01T16:15:12.363Z,5.30
2019-06-01T16:17:41.946Z,8.20
2019-06-01T16:20:10.425Z,7.33
2019-06-01T16:22:39.354Z,6.00
2019-06-01T16:25:16.825Z,7.33
2019-06-01T16:27:46.241Z,6.97
2019-06-01T16:30:14.773Z,8.33
2019-06-01T16:32:43.485Z,5.20
2019-06-01T16:35:12.066Z,6.03
2019-06-01T16:37:40.681Z,5.67
2019-06-01T16:40:10.481Z,5.53
2019-06-01T16:42:39.753Z,6.67
2019-06-01T16:45:08.773Z,16.23
2019-06-01T16:47:37.572Z,7.73
2019-06-01T16:50:07.498Z,6.10
2019-06-01T16:52:36.320Z,7.15
2019-06-01T16:55:05.137Z,5.33
2019-06-01T16:57:35.612Z,7.73
2019-06-01T17:00:05.012Z,4.97
2019-06-01T17:02:33.948Z,4.83
2019-06-01T17:05:02.952Z,5.57
2019-06-01T17:07:31.932Z,6.20
2019-06-01T17:10:20.510Z,3.60
2019-06-01T17:12:31.161Z,9.73
2019-06-01T17:15:00.865Z,5.67
2019-06-01T17:17:29.634Z,7.27
2019-06-01T17:19:58.985Z,5.63
2019-06-01T17:22:28.699Z,5.85
2019-06-01T17:24:57.693Z,7.40
2019-06-01T17:27:26.629Z,7.20
2019-06-01T17:29:54.862Z,12.97
2019-06-01T17:32:24.719Z,21.20
2019-06-01T17:34:53.832Z,7.77
2019-06-01T17:37:22.291Z,8.10
2019-06-01T17:39:51.497Z,4.60
2019-06-01T17:42:19.704Z,9.83
2019-06-01T17:44:48.030Z,4.83
2019-06-01T17:47:16.480Z,10.80
2019-06-01T17:49:45.311Z,8.33
2019-06-01T17:52:13.794Z,2.93
2019-06-01T17:54:42.065Z,13.13
2019-06-01T17:57:11.430Z,10.93
2019-06-01T17:59:40.064Z,6.33
2019-06-01T18:02:09.927Z,7.77
2019-06-01T18:04:38.689Z,4.60
2019-06-01T18:07:07.971Z,4.57
2019-06-01T18:09:37.700Z,5.13
2019-06-01T18:12:06.171Z,3.20
2019-06-01T18:14:35.055Z,3.53
2019-06-01T18:17:04.019Z,3.70
2019-06-01T18:19:32.780Z,4.30
2019-06-01T18:22:02.526Z,4.20
2019-06-01T18:24:31.020Z,3.13
2019-06-01T18:26:59.409Z,5.47
2019-06-01T18:29:28.058Z,4.53
2019-06-01T18:31:56.776Z,7.10
2019-06-01T18:34:25.412Z,6.40
2019-06-01T18:36:53.994Z,5.70
2019-06-01T18:39:22.623Z,6.25
2019-06-01T18:41:51.186Z,5.97
2019-06-01T18:44:19.601Z,4.43
2019-06-01T18:46:48.632Z,5.83
2019-06-01T18:49:18.199Z,4.20
2019-06-01T18:51:47.232Z,4.30
2019-06-01T18:54:15.745Z,3.83
2019-06-01T18:56:44.550Z,5.23
2019-06-01T18:59:14.459Z,5.97
2019-06-01T19:01:43.761Z,5.50
2019-06-01T19:04:12.257Z,5.07
2019-06-01T19:06:40.814Z,5.63
2019-06-01T19:09:09.553Z,4.90
2019-06-01T19:11:37.931Z,4.83
2019-06-01T19:14:07.682Z,5.43
2019-06-01T19:16:36.858Z,5.30
2019-06-01T19:19:06.273Z,5.87
2019-06-01T19:21:35.150Z,8.60
2019-06-01T19:24:04.882Z,7.33
2019-06-01T19:26:33.493Z,10.40
2019-06-01T19:29:02.496Z,8.03
2019-06-01T19:31:31.864Z,10.10
2019-06-01T19:34:01.722Z,9.00
2019-06-01T19:36:31.099Z,8.87
2019-06-01T19:39:01.249Z,12.57
2019-06-01T19:41:43.685Z,9.13
2019-06-01T19:44:01.209Z,10.60
2019-06-01T19:46:31.546Z,7.90
2019-06-01T19:49:01.143Z,9.43
2019-06-01T19:51:31.358Z,9.53
2019-06-01T19:54:03.831Z,8.27
2019-06-01T19:56:55.583Z,13.27
2019-06-01T19:59:28.716Z,8.20
2019-06-01T20:02:01.748Z,8.23
2019-06-01T20:04:31.822Z,10.67
2019-06-01T20:07:00.461Z,9.77
2019-06-01T20:09:30.571Z,8.53
2019-06-01T20:12:10.515Z,8.87
2019-06-01T20:14:36.495Z,9.30
2019-06-01T20:17:06.500Z,10.20
2019-06-01T20:19:38.197Z,10.73
2019-06-01T20:22:12.776Z,8.20
2019-06-01T20:24:46.484Z,9.73
2019-06-01T20:27:21.588Z,10.70
2019-06-01T20:29:55.639Z,10.63
2019-06-01T20:32:29.410Z,8.23
2019-06-01T20:35:04.012Z,12.13
2019-06-01T20:37:37.400Z,7.90
2019-06-01T20:40:07.290Z,11.33
2019-06-01T20:42:36.232Z,9.20
2019-06-01T20:45:05.551Z,7.27
2019-06-01T20:47:37.717Z,10.00
2019-06-01T20:50:07.224Z,12.57
2019-06-01T20:52:38.143Z,9.70
2019-06-01T20:55:08.398Z,11.27
2019-06-01T20:57:39.087Z,10.07
2019-06-01T21:00:09.276Z,8.63
2019-06-01T21:02:43.651Z,8.03
2019-06-01T21:05:27.704Z,9.57
2019-06-01T21:07:57.630Z,7.40
2019-06-01T21:10:28.933Z,9.43
2019-06-01T21:12:59.131Z,7.03
2019-06-01T21:15:28.121Z,8.13
2019-06-01T21:17:57.642Z,5.30
2019-06-01T21:20:29.830Z,6.83
2019-06-01T21:22:56.938Z,6.27
2019-06-01T21:25:25.479Z,8.97
2019-06-01T21:27:54.009Z,6.70
2019-06-01T21:30:23.001Z,4.70
2019-06-01T21:32:52.677Z,4.62
2019-06-01T21:35:21.416Z,4.00
2019-06-01T21:37:49.933Z,3.53
2019-06-01T21:40:19.427Z,5.20
2019-06-01T21:43:02.783Z,4.17
2019-06-01T21:45:19.431Z,3.13
2019-06-01T21:47:47.880Z,5.53
2019-06-01T21:50:16.906Z,3.00
2019-06-01T21:52:46.442Z,3.93
2019-06-01T21:55:15.935Z,4.33
2019-06-01T21:57:47.590Z,3.50
2019-06-01T22:00:20.959Z,2.87
2019-06-01T22:02:51.549Z,3.53
2019-06-01T22:05:20.846Z,4.17
2019-06-01T22:07:49.417Z,3.23
2019-06-01T22:10:19.079Z,3.37
2019-06-01T22:12:47.833Z,3.10
2019-06-01T22:15:17.277Z,6.03
2019-06-01T22:17:46.243Z,3.23
2019-06-01T22:20:14.633Z,5.10
2019-06-01T22:22:42.990Z,3.57
2019-06-01T22:25:11.537Z,4.60
2019-06-01T22:27:41.348Z,3.60
2019-06-01T22:30:09.979Z,6.07
2019-06-01T22:32:38.790Z,5.17
2019-06-01T22:35:07.668Z,2.87
2019-06-01T22:37:36.238Z,2.70
2019-06-01T22:40:05.317Z,5.47
2019-06-01T22:42:33.729Z,2.90
2019-06-01T22:45:03.821Z,2.13
2019-06-01T22:47:32.776Z,2.77
2019-06-01T22:50:01.498Z,4.03
2019-06-01T22:52:31.221Z,2.20
2019-06-01T22:55:00.271Z,3.10
2019-06-01T22:57:28.710Z,2.63
2019-06-01T22:59:57.435Z,3.10
2019-06-01T23:02:25.891Z,2.40
2019-06-01T23:04:54.453Z,3.27
2019-06-01T23:07:23.095Z,3.00
2019-06-01T23:09:51.651Z,2.60
2019-06-01T23:12:21.107Z,4.03
2019-06-01T23:14:49.889Z,3.43
2019-06-01T23:17:18.344Z,3.43
2019-06-01T23:19:47.131Z,3.87
2019-06-01T23:22:15.689Z,3.40
2019-06-01T23:24:44.301Z,4.20
2019-06-01T23:27:13.033Z,3.20
2019-06-01T23:29:41.823Z,4.00
2019-06-01T23:32:10.576Z,3.93
2019-06-01T23:34:39.162Z,5.00
2019-06-01T23:37:07.976Z,3.63
2019-06-01T23:39:36.534Z,5.73
2019-06-01T23:42:05.369Z,5.77
2019-06-01T23:44:35.123Z,4.87
2019-06-01T23:47:03.781Z,4.03
2019-06-01T23:49:34.039Z,6.00
2019-06-01T23:52:02.930Z,4.30
2019-06-01T23:54:32.481Z,6.00
2019-06-01T23:57:01.454Z,6.80
2019-06-01T23:59:32.431Z,6.47
